createdAt,value
2022-10-10T00:00:11.558Z,19.25
2022-10-10T00:05:35.274Z,24.07
2022-10-10T00:10:57.554Z,23.70
2022-10-10T00:16:20.179Z,25.10
2022-10-10T00:21:42.508Z,26.40
2022-10-10T00:27:05.151Z,21.47
2022-10-10T00:32:27.828Z,25.77
2022-10-10T00:37:51.468Z,23.27
2022-10-10T00:43:15.388Z,24.07
2022-10-10T00:48:48.248Z,28.10
2022-10-10T00:54:14.704Z,23.07
2022-10-10T00:59:39.450Z,24.70
2022-10-10T01:05:02.755Z,23.42
2022-10-10T01:10:28.195Z,27.43
2022-10-10T01:15:58.441Z,21.90
2022-10-10T01:27:33.955Z,22.50
2022-10-10T01:33:22.125Z,21.97
2022-10-10T01:39:10.381Z,23.77
2022-10-10T01:44:34.751Z,24.93
2022-10-10T01:50:00.726Z,24.77
2022-10-10T01:55:57.722Z,28.03
2022-10-10T02:01:31.185Z,30.47
2022-10-10T02:07:08.871Z,29.17
2022-10-10T02:12:33.522Z,29.67
2022-10-10T02:17:59.118Z,23.30
2022-10-10T02:23:23.885Z,22.37
2022-10-10T02:29:02.900Z,23.03
2022-10-10T02:34:36.052Z,24.63
2022-10-10T02:40:03.225Z,24.27
2022-10-10T02:45:28.594Z,23.12
2022-10-10T02:50:51.181Z,24.12
2022-10-10T02:56:13.450Z,22.07
2022-10-10T03:01:35.948Z,27.97
2022-10-10T03:06:58.060Z,29.20
2022-10-10T03:12:20.647Z,23.87
2022-10-10T03:17:43.364Z,20.03
2022-10-10T03:23:06.044Z,19.10
2022-10-10T03:28:28.953Z,21.42
2022-10-10T03:33:51.242Z,26.13
2022-10-10T03:39:13.868Z,22.67
2022-10-10T03:44:36.084Z,19.90
2022-10-10T03:49:58.714Z,21.40
2022-10-10T03:55:21.425Z,18.15
2022-10-10T04:00:44.195Z,22.20
2022-10-10T04:06:06.398Z,22.57
2022-10-10T04:11:28.618Z,21.13
2022-10-10T04:16:50.824Z,24.80
2022-10-10T04:22:12.977Z,23.52
2022-10-10T04:27:35.114Z,20.73
2022-10-10T04:32:57.714Z,25.17
2022-10-10T04:38:21.576Z,24.23
2022-10-10T04:43:44.233Z,22.17
2022-10-10T04:49:06.802Z,25.23
2022-10-10T04:54:28.948Z,24.82
2022-10-10T04:59:51.255Z,24.20
2022-10-10T05:05:13.930Z,24.35
2022-10-10T05:10:38.665Z,23.77
2022-10-10T05:16:02.637Z,22.02
2022-10-10T05:21:24.919Z,23.00
2022-10-10T05:26:47.053Z,24.52
2022-10-10T05:32:10.640Z,28.50
2022-10-10T05:37:33.433Z,21.60
2022-10-10T05:42:55.593Z,22.07
2022-10-10T05:48:19.011Z,21.83
2022-10-10T05:53:42.661Z,24.53
2022-10-10T05:59:04.851Z,25.10
2022-10-10T06:04:27.050Z,26.37
2022-10-10T06:09:49.408Z,23.23
2022-10-10T06:15:11.890Z,25.02
2022-10-10T06:20:34.130Z,23.98
2022-10-10T06:25:58.664Z,31.70
2022-10-10T06:31:23.916Z,24.20
2022-10-10T06:36:46.570Z,23.97
2022-10-10T06:42:08.828Z,23.77
2022-10-10T06:47:31.550Z,26.97
2022-10-10T06:52:54.178Z,26.80
2022-10-10T06:58:16.416Z,20.80
2022-10-10T07:03:39.684Z,28.07
2022-10-10T07:09:02.775Z,22.70
2022-10-10T07:14:25.196Z,28.90
2022-10-10T07:19:49.120Z,24.37
2022-10-10T07:25:12.104Z,26.33
2022-10-10T07:30:34.600Z,33.18
2022-10-10T07:36:00.976Z,27.77
2022-10-10T07:41:31.393Z,26.93
2022-10-10T07:46:54.047Z,24.27
2022-10-10T07:52:18.205Z,24.30
2022-10-10T07:57:41.674Z,21.65
2022-10-10T08:03:06.435Z,19.73
2022-10-10T08:08:29.280Z,23.83
2022-10-10T08:13:52.429Z,23.45
2022-10-10T08:24:36.782Z,18.25
2022-10-10T08:29:59.020Z,23.55
2022-10-10T08:35:21.285Z,21.00
2022-10-10T08:40:55.359Z,18.03
2022-10-10T08:46:24.983Z,12.95
2022-10-10T08:51:49.138Z,15.53
2022-10-10T08:57:16.459Z,14.18
2022-10-10T09:02:59.436Z,12.97
2022-10-10T09:08:35.552Z,12.27
2022-10-10T09:14:30.397Z,10.40
2022-10-10T09:20:22.485Z,6.67
2022-10-10T09:26:11.104Z,7.30
2022-10-10T09:31:49.738Z,10.50
2022-10-10T09:37:35.350Z,12.68
2022-10-10T09:42:48.338Z,11.17
2022-10-10T09:48:12.161Z,11.10
2022-10-10T09:53:35.746Z,12.93
2022-10-10T09:59:03.771Z,11.13
2022-10-10T10:04:31.924Z,12.90
2022-10-10T10:09:57.312Z,8.90
2022-10-10T10:15:36.140Z,11.48
2022-10-10T10:21:03.987Z,10.80
2022-10-10T10:26:31.112Z,9.80
2022-10-10T10:32:12.409Z,11.20
2022-10-10T10:38:00.948Z,10.40
2022-10-10T10:43:43.056Z,8.00
2022-10-10T10:49:10.602Z,8.80
2022-10-10T10:55:04.016Z,8.28
2022-10-10T11:01:23.827Z,9.00
2022-10-10T11:06:32.587Z,15.60
2022-10-10T11:12:24.122Z,8.30
2022-10-10T11:18:03.497Z,10.55
2022-10-10T11:23:39.788Z,13.13
2022-10-10T11:29:12.998Z,10.13
2022-10-10T11:34:55.349Z,12.90
2022-10-10T11:46:03.747Z,11.57
2022-10-10T11:51:33.289Z,9.67
2022-10-10T11:56:58.679Z,10.57
2022-10-10T12:02:31.144Z,12.70
2022-10-10T12:08:06.742Z,11.43
2022-10-10T12:13:42.139Z,9.40
2022-10-10T12:19:11.815Z,10.57
2022-10-10T12:24:42.562Z,8.13
2022-10-10T12:30:16.468Z,9.07
2022-10-10T12:35:49.166Z,9.68
2022-10-10T12:41:27.846Z,10.13
2022-10-10T12:46:51.057Z,9.60
2022-10-10T12:52:31.481Z,8.55
2022-10-10T12:58:06.625Z,10.80
2022-10-10T13:03:41.782Z,9.60
2022-10-10T13:09:31.042Z,9.17
2022-10-10T13:15:03.257Z,10.90
2022-10-10T13:26:10.511Z,7.57
2022-10-10T13:31:33.398Z,10.07
2022-10-10T13:36:56.003Z,9.03
2022-10-10T13:42:30.080Z,8.57
2022-10-10T13:48:09.954Z,14.00
2022-10-10T13:53:45.309Z,8.97
2022-10-10T13:59:17.781Z,8.97
2022-10-10T14:04:53.019Z,6.43
2022-10-10T14:10:32.281Z,9.13
2022-10-10T14:16:02.081Z,6.63
2022-10-10T14:21:26.070Z,8.40
2022-10-10T14:26:49.182Z,6.53
2022-10-10T14:32:11.384Z,10.80
2022-10-10T14:37:41.955Z,7.60
2022-10-10T14:43:04.149Z,10.15
2022-10-10T14:48:26.485Z,7.72
2022-10-10T14:54:11.924Z,13.50
2022-10-10T14:59:13.014Z,9.95
2022-10-10T15:04:35.238Z,10.13
2022-10-10T15:15:24.402Z,7.87
2022-10-10T15:20:47.319Z,9.67
2022-10-10T15:26:11.704Z,12.90
2022-10-10T15:31:41.355Z,10.18
2022-10-10T15:37:04.458Z,8.17
2022-10-10T15:42:27.822Z,10.68
2022-10-10T15:47:52.838Z,7.90
2022-10-10T15:53:15.038Z,8.55
2022-10-10T15:58:37.168Z,7.67
2022-10-10T16:04:00.974Z,13.38
2022-10-10T16:09:28.470Z,9.40
2022-10-10T16:14:48.133Z,9.33
2022-10-10T16:20:10.472Z,7.00
2022-10-10T16:25:33.061Z,14.40
2022-10-10T16:30:55.202Z,9.10
2022-10-10T16:36:23.101Z,7.75
2022-10-10T16:41:48.328Z,14.18
2022-10-10T16:47:11.231Z,10.40
2022-10-10T16:52:35.032Z,11.93
2022-10-10T16:57:59.490Z,14.70
2022-10-10T17:03:22.490Z,14.05
2022-10-10T17:08:45.758Z,14.47
2022-10-10T17:14:08.774Z,9.80
2022-10-10T17:19:31.216Z,10.87
2022-10-10T17:24:53.433Z,10.98
2022-10-10T17:30:16.941Z,8.67
2022-10-10T17:35:39.204Z,8.48
2022-10-10T17:41:04.292Z,11.25
2022-10-10T17:46:36.552Z,11.23
2022-10-10T17:52:00.143Z,14.68
2022-10-10T17:57:22.447Z,10.77
2022-10-10T18:02:45.281Z,10.67
2022-10-10T18:08:09.904Z,9.58
2022-10-10T18:13:32.213Z,8.88
2022-10-10T18:18:56.649Z,11.63
2022-10-10T18:24:20.407Z,8.43
2022-10-10T18:29:42.687Z,9.10
2022-10-10T18:35:04.832Z,10.13
2022-10-10T18:40:28.002Z,8.13
2022-10-10T18:45:50.796Z,11.73
2022-10-10T18:51:19.973Z,10.65
2022-10-10T18:56:44.740Z,9.23
2022-10-10T19:02:07.152Z,14.00
2022-10-10T19:07:29.290Z,11.60
2022-10-10T19:12:51.801Z,9.50
2022-10-10T19:18:14.148Z,11.90
2022-10-10T19:23:36.855Z,12.90
2022-10-10T19:29:03.093Z,12.80
2022-10-10T19:34:23.766Z,12.13
2022-10-10T19:39:46.429Z,10.45
2022-10-10T19:45:08.641Z,11.23
2022-10-10T19:50:31.288Z,11.20
2022-10-10T19:56:04.517Z,9.77
2022-10-10T20:01:30.597Z,10.48
2022-10-10T20:06:54.275Z,14.35
2022-10-10T20:12:16.493Z,11.07
2022-10-10T20:17:40.193Z,10.65
2022-10-10T20:23:02.382Z,11.60
2022-10-10T20:28:26.728Z,11.03
2022-10-10T20:33:49.492Z,12.43
2022-10-10T20:39:18.463Z,10.10
2022-10-10T20:44:40.623Z,10.87
2022-10-10T20:50:03.261Z,12.13
2022-10-10T20:55:25.898Z,12.63
2022-10-10T21:00:48.130Z,15.05
2022-10-10T21:06:29.888Z,14.87
2022-10-10T21:11:55.036Z,16.23
2022-10-10T21:17:17.698Z,15.38
2022-10-10T21:22:40.386Z,15.33
2022-10-10T21:28:02.963Z,20.85
2022-10-10T21:33:25.248Z,13.83
2022-10-10T21:38:49.367Z,15.30
2022-10-10T21:44:12.872Z,14.63
2022-10-10T21:49:35.012Z,16.52
2022-10-10T21:54:57.146Z,14.43
2022-10-10T22:00:21.001Z,16.27
2022-10-10T22:05:45.114Z,14.83
2022-10-10T22:11:10.325Z,14.70
2022-10-10T22:16:32.574Z,14.05
2022-10-10T22:21:54.723Z,18.70
2022-10-10T22:27:16.854Z,16.82
2022-10-10T22:32:39.654Z,15.63
2022-10-10T22:38:01.817Z,16.93
2022-10-10T22:43:27.015Z,23.77
2022-10-10T22:48:48.643Z,22.45
2022-10-10T22:54:10.818Z,18.02
2022-10-10T22:59:33.894Z,17.82
2022-10-10T23:04:56.457Z,17.05
2022-10-10T23:10:19.331Z,13.48
2022-10-10T23:15:41.484Z,21.55
2022-10-10T23:21:04.336Z,19.90
2022-10-10T23:26:27.340Z,18.52
2022-10-10T23:31:50.823Z,18.73
2022-10-10T23:37:13.508Z,22.35
2022-10-10T23:42:35.691Z,20.77
2022-10-10T23:47:58.308Z,20.45
2022-10-10T23:53:20.635Z,18.95
2022-10-10T23:58:42.792Z,24.05
